createdAt,value
2017-11-01T00:00:58.714Z,6.78
2017-11-01T00:03:26.274Z,8.68
2017-11-01T00:05:53.870Z,5.50
2017-11-01T00:08:21.478Z,4.68
2017-11-01T00:10:49.252Z,7.68
2017-11-01T00:13:16.832Z,6.25
2017-11-01T00:15:44.497Z,8.40
2017-11-01T00:18:12.269Z,8.57
2017-11-01T00:20:39.848Z,19.00
2017-11-01T00:23:07.443Z,5.78
2017-11-01T00:25:35.865Z,6.57
2017-11-01T00:28:03.492Z,5.25
2017-11-01T00:30:31.088Z,4.20
2017-11-01T00:32:58.850Z,5.05
2017-11-01T00:35:26.511Z,4.18
2017-11-01T00:37:54.231Z,7.37
2017-11-01T00:40:21.995Z,5.43
2017-11-01T00:42:49.581Z,4.80
2017-11-01T00:45:17.177Z,5.25
2017-11-01T00:47:44.948Z,8.27
2017-11-01T00:50:12.541Z,5.60
2017-11-01T00:52:40.198Z,4.85
2017-11-01T00:55:07.726Z,3.83
2017-11-01T00:57:35.350Z,4.78
2017-11-01T01:00:04.508Z,4.57
2017-11-01T01:02:32.288Z,4.65
2017-11-01T01:04:59.982Z,7.53
2017-11-01T01:07:27.607Z,6.35
2017-11-01T01:09:55.152Z,4.30
2017-11-01T01:12:22.776Z,4.80
2017-11-01T01:14:50.391Z,4.32
2017-11-01T01:17:18.019Z,5.60
2017-11-01T01:19:46.346Z,7.07
2017-11-01T01:22:13.976Z,7.28
2017-11-01T01:24:41.739Z,5.10
2017-11-01T01:27:09.288Z,7.62
2017-11-01T01:29:36.896Z,6.55
2017-11-01T01:32:04.540Z,8.27
2017-11-01T01:34:32.687Z,4.53
2017-11-01T01:37:00.356Z,14.98
2017-11-01T01:39:27.957Z,5.40
2017-11-01T01:41:55.516Z,5.78
2017-11-01T01:44:23.273Z,9.48
2017-11-01T01:46:50.872Z,6.87
2017-11-01T01:49:18.450Z,7.78
2017-11-01T01:51:46.010Z,4.80
2017-11-01T01:54:13.694Z,8.27
2017-11-01T01:56:41.517Z,3.70
2017-11-01T01:59:09.159Z,7.30
2017-11-01T02:01:36.844Z,7.12
2017-11-01T02:04:04.506Z,4.72
2017-11-01T02:06:32.264Z,5.50
2017-11-01T02:08:59.888Z,7.55
2017-11-01T02:11:27.571Z,4.78
2017-11-01T02:13:55.362Z,4.30
2017-11-01T02:16:23.188Z,4.55
2017-11-01T02:18:51.002Z,6.65
2017-11-01T02:21:19.430Z,5.97
2017-11-01T02:23:47.108Z,8.57
2017-11-01T02:26:14.994Z,6.78
2017-11-01T02:28:42.646Z,9.70
2017-11-01T02:31:10.425Z,7.85
2017-11-01T02:33:38.033Z,6.30
2017-11-01T02:36:05.883Z,8.23
2017-11-01T02:38:33.503Z,5.78
2017-11-01T02:41:01.411Z,8.57
2017-11-01T02:43:29.004Z,7.03
2017-11-01T02:45:56.664Z,10.00
2017-11-01T02:48:24.401Z,7.18
2017-11-01T02:50:52.235Z,5.78
2017-11-01T02:53:19.886Z,5.95
2017-11-01T02:55:47.673Z,9.77
2017-11-01T02:58:15.498Z,6.05
2017-11-01T03:00:43.179Z,9.75
2017-11-01T03:03:10.978Z,4.57
2017-11-01T03:05:38.780Z,6.05
2017-11-01T03:08:06.454Z,4.12
2017-11-01T03:10:34.031Z,6.15
2017-11-01T03:13:01.786Z,6.43
2017-11-01T03:15:29.647Z,5.65
2017-11-01T03:17:57.733Z,5.68
2017-11-01T03:20:25.524Z,4.82
2017-11-01T03:22:53.168Z,3.78
2017-11-01T03:25:20.967Z,5.32
2017-11-01T03:27:48.570Z,6.55
2017-11-01T03:30:16.420Z,5.97
2017-11-01T03:32:44.026Z,5.85
2017-11-01T03:35:11.598Z,4.25
2017-11-01T03:37:39.279Z,3.72
2017-11-01T03:40:06.905Z,4.15
2017-11-01T03:42:35.332Z,6.90
2017-11-01T03:45:03.038Z,8.93
2017-11-01T03:47:30.664Z,5.25
2017-11-01T03:49:58.302Z,4.43
2017-11-01T03:52:25.962Z,3.78
2017-11-01T03:54:53.578Z,5.30
2017-11-01T03:57:21.180Z,5.32
2017-11-01T03:59:48.868Z,6.95
2017-11-01T04:02:16.521Z,5.12
2017-11-01T04:04:44.193Z,4.72
2017-11-01T04:07:11.826Z,5.10
2017-11-01T04:09:39.509Z,3.85
2017-11-01T04:12:07.389Z,5.87
2017-11-01T04:14:35.703Z,5.12
2017-11-01T04:17:04.273Z,5.03
2017-11-01T04:19:39.534Z,12.05
2017-11-01T04:22:07.150Z,7.03
2017-11-01T04:24:34.799Z,6.47
2017-11-01T04:27:02.399Z,7.78
2017-11-01T04:29:30.057Z,6.07
2017-11-01T04:31:58.034Z,6.78
2017-11-01T04:34:25.998Z,5.85
2017-11-01T04:36:53.660Z,6.40
2017-11-01T04:39:21.356Z,6.12
2017-11-01T04:41:49.010Z,12.48
2017-11-01T04:44:16.710Z,6.05
2017-11-01T04:46:44.468Z,9.32
2017-11-01T04:49:12.911Z,7.60
2017-11-01T04:51:42.394Z,8.77
2017-11-01T04:54:10.762Z,5.05
2017-11-01T04:56:40.663Z,6.55
2017-11-01T04:59:08.275Z,7.85
2017-11-01T05:01:38.808Z,5.25
2017-11-01T05:04:06.499Z,6.47
2017-11-01T05:06:34.224Z,7.57
2017-11-01T05:09:01.996Z,11.75
2017-11-01T05:11:35.188Z,9.23
2017-11-01T05:14:03.611Z,12.32
2017-11-01T05:16:32.395Z,8.70
2017-11-01T05:19:00.216Z,7.93
2017-11-01T05:21:27.812Z,7.18
2017-11-01T05:23:55.612Z,7.78
2017-11-01T05:26:23.208Z,11.98
2017-11-01T05:28:50.851Z,10.27
2017-11-01T05:31:19.234Z,10.30
2017-11-01T05:33:47.063Z,6.12
2017-11-01T05:36:14.707Z,15.07
2017-11-01T05:38:44.080Z,7.50
2017-11-01T05:41:11.745Z,14.27
2017-11-01T05:43:39.724Z,6.93
2017-11-01T05:46:08.318Z,6.12
2017-11-01T05:48:36.004Z,7.28
2017-11-01T05:51:03.671Z,8.13
2017-11-01T05:53:31.358Z,9.43
2017-11-01T05:55:58.952Z,6.30
2017-11-01T05:58:27.467Z,9.35
2017-11-01T06:00:55.201Z,7.75
2017-11-01T06:03:28.106Z,11.10
2017-11-01T06:05:55.849Z,8.07
2017-11-01T06:08:23.501Z,7.82
2017-11-01T06:10:51.308Z,28.38
2017-11-01T06:13:19.239Z,7.35
2017-11-01T06:15:46.871Z,9.65
2017-11-01T06:18:14.595Z,8.68
2017-11-01T06:20:42.298Z,9.53
2017-11-01T06:23:12.016Z,11.63
2017-11-01T06:25:39.600Z,10.50
2017-11-01T06:28:07.202Z,7.07
2017-11-01T06:30:34.880Z,9.60
2017-11-01T06:33:02.544Z,11.60
2017-11-01T06:35:31.766Z,7.67
2017-11-01T06:37:59.442Z,8.73
2017-11-01T06:40:28.112Z,8.93
2017-11-01T06:42:55.995Z,8.40
2017-11-01T06:45:23.709Z,7.33
2017-11-01T06:47:51.339Z,9.27
2017-11-01T06:50:19.309Z,9.43
2017-11-01T06:52:47.195Z,9.77
2017-11-01T06:55:14.798Z,6.97
2017-11-01T06:57:43.656Z,6.87
2017-11-01T07:00:11.691Z,12.60
2017-11-01T07:02:43.540Z,11.30
2017-11-01T07:05:25.812Z,10.67
2017-11-01T07:07:53.496Z,8.80
2017-11-01T07:10:22.016Z,12.57
2017-11-01T07:12:50.019Z,10.00
2017-11-01T07:15:17.667Z,14.70
2017-11-01T07:17:45.596Z,9.03
2017-11-01T07:20:13.397Z,11.00
2017-11-01T07:22:41.589Z,7.50
2017-11-01T07:25:09.347Z,9.67
2017-11-01T07:27:37.165Z,9.17
2017-11-01T07:30:09.910Z,9.03
2017-11-01T07:32:37.739Z,14.23
2017-11-01T07:35:05.554Z,8.53
2017-11-01T07:37:33.239Z,9.33
2017-11-01T07:40:00.841Z,11.80
2017-11-01T07:42:28.621Z,7.13
2017-11-01T07:44:56.273Z,11.63
2017-11-01T07:47:23.912Z,8.30
2017-11-01T07:49:51.573Z,8.17
2017-11-01T07:52:19.493Z,7.33
2017-11-01T07:54:47.242Z,7.00
2017-11-01T07:57:15.108Z,8.30
2017-11-01T07:59:43.005Z,9.60
2017-11-01T08:02:10.676Z,8.70
2017-11-01T08:04:38.368Z,7.03
2017-11-01T08:07:06.940Z,7.23
2017-11-01T08:09:34.681Z,10.80
2017-11-01T08:12:02.471Z,8.47
2017-11-01T08:14:30.131Z,11.67
2017-11-01T08:16:57.984Z,9.93
2017-11-01T08:19:25.756Z,7.10
2017-11-01T08:21:53.796Z,6.13
2017-11-01T08:24:21.716Z,6.80
2017-11-01T08:26:49.523Z,6.90
2017-11-01T08:29:17.811Z,6.70
2017-11-01T08:31:45.518Z,8.17
2017-11-01T08:34:13.503Z,7.27
2017-11-01T08:36:41.102Z,9.50
2017-11-01T08:39:08.736Z,9.10
2017-11-01T08:41:36.603Z,21.83
2017-11-01T08:44:04.418Z,7.90
2017-11-01T08:46:33.403Z,7.93
2017-11-01T08:49:01.076Z,6.83
2017-11-01T08:51:28.786Z,5.10
2017-11-01T08:53:56.432Z,6.30
2017-11-01T08:56:24.099Z,4.37
2017-11-01T08:58:52.531Z,8.47
2017-11-01T09:01:20.390Z,7.80
2017-11-01T09:03:48.056Z,8.83
2017-11-01T09:06:15.692Z,12.07
2017-11-01T09:08:43.370Z,14.60
2017-11-01T09:11:11.111Z,6.07
2017-11-01T09:13:38.732Z,5.07
2017-11-01T09:16:06.385Z,4.20
2017-11-01T09:18:34.174Z,4.10
2017-11-01T09:21:01.759Z,8.27
2017-11-01T09:23:30.318Z,4.87
2017-11-01T09:25:57.912Z,6.73
2017-11-01T09:28:25.733Z,3.60
2017-11-01T09:30:53.347Z,4.00
2017-11-01T09:33:21.142Z,5.00
2017-11-01T09:35:48.783Z,4.03
2017-11-01T09:38:17.130Z,3.80
2017-11-01T09:40:44.880Z,3.63
2017-11-01T09:43:13.349Z,3.87
2017-11-01T09:45:41.622Z,4.33
2017-11-01T09:48:09.333Z,5.53
2017-11-01T09:50:37.067Z,4.73
2017-11-01T09:53:04.679Z,3.90
2017-11-01T09:55:32.271Z,4.83
2017-11-01T09:58:00.086Z,4.23
2017-11-01T10:00:28.521Z,5.73
2017-11-01T10:02:56.450Z,4.07
2017-11-01T10:05:24.079Z,5.40
2017-11-01T10:07:51.682Z,3.67
2017-11-01T10:10:23.238Z,6.70
2017-11-01T10:12:50.832Z,6.27
2017-11-01T10:15:20.870Z,5.20
2017-11-01T10:17:48.640Z,7.83
2017-11-01T10:20:16.246Z,5.10
2017-11-01T10:22:43.896Z,4.63
2017-11-01T10:25:11.548Z,6.23
2017-11-01T10:27:39.149Z,5.20
2017-11-01T10:30:09.362Z,3.50
2017-11-01T10:32:37.240Z,5.73
2017-11-01T10:35:05.035Z,3.50
2017-11-01T10:37:32.652Z,3.63
2017-11-01T10:40:01.427Z,5.83
2017-11-01T10:42:29.427Z,3.50
2017-11-01T10:44:57.926Z,4.57
2017-11-01T10:47:26.584Z,4.63
2017-11-01T10:49:54.272Z,7.33
2017-11-01T10:52:21.895Z,8.50
2017-11-01T10:54:49.746Z,5.57
2017-11-01T10:57:17.516Z,6.37
2017-11-01T10:59:45.639Z,4.97
2017-11-01T11:02:14.001Z,4.80
2017-11-01T11:04:41.649Z,5.70
2017-11-01T11:07:10.107Z,4.83
2017-11-01T11:09:37.720Z,4.67
2017-11-01T11:12:06.384Z,3.90
2017-11-01T11:14:34.080Z,3.63
2017-11-01T11:17:01.826Z,4.73
2017-11-01T11:19:29.680Z,4.70
2017-11-01T11:21:57.453Z,4.27
2017-11-01T11:24:25.830Z,5.63
2017-11-01T11:26:53.608Z,4.40
2017-11-01T11:29:21.728Z,4.80
2017-11-01T11:31:49.611Z,5.00
2017-11-01T11:34:18.236Z,2.73
2017-11-01T11:36:45.937Z,4.07
2017-11-01T11:39:13.654Z,3.70
2017-11-01T11:41:41.461Z,5.30
2017-11-01T11:44:09.118Z,4.10
2017-11-01T11:46:36.945Z,3.60
2017-11-01T11:49:04.590Z,4.07
2017-11-01T11:51:32.191Z,4.27
2017-11-01T11:53:59.938Z,3.60
2017-11-01T11:56:28.496Z,3.60
2017-11-01T11:58:57.242Z,5.83
2017-11-01T12:01:25.264Z,4.20
2017-11-01T12:03:52.964Z,4.93
2017-11-01T12:06:20.599Z,3.70
2017-11-01T12:08:48.564Z,2.93
2017-11-01T12:11:16.610Z,3.40
2017-11-01T12:13:44.597Z,5.70
2017-11-01T12:16:12.800Z,3.80
2017-11-01T12:18:40.515Z,3.37
2017-11-01T12:21:08.141Z,5.77
2017-11-01T12:23:36.673Z,3.57
2017-11-01T12:26:04.316Z,4.20
2017-11-01T12:28:31.844Z,3.87
2017-11-01T12:30:59.539Z,3.80
2017-11-01T12:33:27.230Z,6.00
2017-11-01T12:35:55.083Z,7.73
2017-11-01T12:38:22.851Z,3.23
2017-11-01T12:40:50.893Z,4.30
2017-11-01T12:43:18.539Z,3.73
2017-11-01T12:45:46.166Z,6.33
2017-11-01T12:48:13.769Z,4.27
2017-11-01T12:50:41.689Z,4.87
2017-11-01T12:53:10.204Z,4.60
2017-11-01T12:55:37.807Z,4.97
2017-11-01T12:58:05.477Z,5.03
2017-11-01T13:00:33.161Z,5.40
2017-11-01T13:03:00.858Z,5.10
2017-11-01T13:05:28.651Z,3.97
2017-11-01T13:07:56.328Z,6.30
2017-11-01T13:10:24.170Z,3.93
2017-11-01T13:12:51.816Z,4.73
2017-11-01T13:15:19.470Z,5.67
2017-11-01T13:17:47.262Z,3.90
2017-11-01T13:20:14.945Z,4.70
2017-11-01T13:22:42.633Z,4.20
2017-11-01T13:25:10.298Z,7.37
2017-11-01T13:27:38.351Z,7.03
2017-11-01T13:30:09.602Z,4.60
2017-11-01T13:32:37.186Z,4.47
2017-11-01T13:35:04.852Z,4.30
2017-11-01T13:37:32.657Z,4.97
2017-11-01T13:40:00.468Z,6.43
2017-11-01T13:42:28.998Z,6.43
2017-11-01T13:44:57.307Z,4.77
2017-11-01T13:47:24.927Z,5.03
2017-11-01T13:49:52.520Z,15.07
2017-11-01T13:52:20.322Z,4.50
2017-11-01T13:54:47.939Z,8.03
2017-11-01T13:57:15.557Z,4.03
2017-11-01T13:59:43.226Z,5.13
2017-11-01T14:02:10.864Z,5.03
2017-11-01T14:04:38.713Z,3.53
2017-11-01T14:07:06.997Z,5.10
2017-11-01T14:09:34.687Z,4.83
2017-11-01T14:12:02.490Z,8.20
2017-11-01T14:14:30.062Z,5.33
2017-11-01T14:16:57.797Z,4.10
2017-11-01T14:19:25.415Z,6.10
2017-11-01T14:21:53.076Z,3.90
2017-11-01T14:24:21.433Z,7.70
2017-11-01T14:26:49.114Z,5.00
2017-11-01T14:29:16.730Z,5.27
2017-11-01T14:31:44.382Z,5.97
2017-11-01T14:34:12.008Z,6.03
2017-11-01T14:42:59.340Z,6.00
2017-11-01T14:45:27.007Z,4.70
2017-11-01T14:47:55.599Z,7.10
2017-11-01T14:50:23.236Z,5.97
2017-11-01T14:52:50.890Z,7.20
2017-11-01T14:55:19.527Z,7.50
2017-11-01T14:57:48.374Z,9.33
2017-11-01T15:03:15.965Z,6.67
2017-11-01T15:05:43.716Z,13.20
2017-11-01T15:08:12.724Z,8.63
2017-11-01T15:10:40.391Z,5.23
2017-11-01T15:13:08.739Z,4.90
2017-11-01T15:15:36.380Z,5.73
2017-11-01T15:18:04.072Z,5.30
2017-11-01T15:20:31.685Z,7.40
2017-11-01T15:22:59.345Z,7.30
2017-11-01T15:25:26.974Z,6.83
2017-11-01T15:27:54.530Z,7.33
2017-11-01T15:30:22.480Z,6.93
2017-11-01T15:32:50.101Z,7.93
2017-11-01T15:35:17.920Z,11.93
2017-11-01T15:37:45.551Z,5.73
2017-11-01T15:43:46.569Z,13.50
2017-11-01T15:46:14.355Z,7.20
2017-11-01T15:48:41.988Z,11.37
2017-11-01T15:51:10.203Z,13.57
2017-11-01T15:53:38.198Z,10.93
2017-11-01T15:56:05.781Z,7.13
2017-11-01T15:58:34.153Z,10.80
2017-11-01T16:01:01.806Z,12.00
2017-11-01T16:03:29.637Z,10.90
2017-11-01T16:05:57.327Z,10.90
2017-11-01T16:08:26.550Z,11.97
2017-11-01T16:10:55.110Z,15.07
2017-11-01T16:13:22.737Z,11.33
2017-11-01T16:15:50.439Z,14.90
2017-11-01T16:18:18.632Z,14.40
2017-11-01T16:20:47.062Z,17.13
2017-11-01T16:23:14.746Z,13.70
2017-11-01T16:25:42.403Z,16.80
2017-11-01T16:28:10.039Z,12.03
2017-11-01T16:30:37.889Z,14.90
2017-11-01T16:33:05.523Z,13.23
2017-11-01T16:35:33.113Z,13.37
2017-11-01T16:38:01.470Z,21.97
2017-11-01T16:40:29.049Z,10.73
2017-11-01T16:42:56.611Z,12.50
2017-11-01T16:45:24.259Z,13.40
2017-11-01T16:50:24.457Z,17.83
2017-11-01T16:52:52.098Z,15.67
2017-11-01T16:55:20.666Z,17.40
2017-11-01T16:57:48.416Z,14.23
2017-11-01T17:00:16.064Z,11.50
2017-11-01T17:02:43.755Z,15.77
2017-11-01T17:05:11.367Z,11.40
2017-11-01T17:07:39.060Z,13.95
2017-11-01T17:10:06.835Z,11.73
2017-11-01T17:12:34.450Z,18.13
2017-11-01T17:15:02.050Z,18.17
2017-11-01T17:17:29.692Z,19.40
2017-11-01T17:19:58.393Z,21.87
2017-11-01T17:22:26.882Z,23.60
2017-11-01T17:24:54.559Z,18.30
2017-11-01T17:27:22.295Z,24.43
2017-11-01T17:29:50.091Z,19.23
2017-11-01T17:32:17.816Z,21.63
2017-11-01T17:34:45.707Z,25.73
2017-11-01T17:37:13.316Z,23.23
2017-11-01T17:39:40.997Z,23.27
2017-11-01T17:42:08.772Z,21.43
2017-11-01T17:44:36.409Z,25.60
2017-11-01T17:47:04.002Z,25.37
2017-11-01T17:49:31.851Z,22.87
2017-11-01T17:51:59.637Z,31.33
2017-11-01T17:54:27.368Z,24.07
2017-11-01T17:56:55.612Z,23.07
2017-11-01T17:59:23.243Z,19.93
2017-11-01T18:01:50.848Z,21.00
2017-11-01T18:04:18.418Z,23.30
2017-11-01T18:06:46.024Z,20.00
2017-11-01T18:09:13.635Z,28.17
2017-11-01T18:11:41.258Z,22.00
2017-11-01T18:14:08.852Z,31.43
2017-11-01T18:16:36.548Z,22.43
2017-11-01T18:19:04.230Z,25.48
2017-11-01T18:21:31.969Z,24.20
2017-11-01T18:24:00.577Z,20.33
2017-11-01T18:26:28.323Z,19.67
2017-11-01T18:28:55.923Z,26.83
2017-11-01T18:31:23.580Z,33.00
2017-11-01T18:33:51.139Z,26.23
2017-11-01T18:36:18.958Z,22.67
2017-11-01T18:38:46.562Z,24.90
2017-11-01T18:41:14.454Z,26.27
2017-11-01T18:43:42.294Z,20.67
2017-11-01T18:46:10.013Z,17.52
2017-11-01T18:48:37.964Z,22.63
2017-11-01T18:51:05.562Z,20.70
2017-11-01T18:53:33.197Z,17.77
2017-11-01T18:56:00.925Z,21.42
2017-11-01T18:58:28.767Z,16.80
2017-11-01T19:00:56.778Z,20.05
2017-11-01T19:03:24.453Z,18.55
2017-11-01T19:05:52.389Z,17.98
2017-11-01T19:08:20.006Z,18.63
2017-11-01T19:10:48.558Z,18.93
2017-11-01T19:13:16.203Z,20.87
2017-11-01T19:15:43.930Z,17.83
2017-11-01T19:18:11.508Z,17.63
2017-11-01T19:20:39.867Z,19.15
2017-11-01T19:23:07.480Z,20.47
2017-11-01T19:25:35.312Z,20.83
2017-11-01T19:28:02.910Z,20.37
2017-11-01T19:30:30.534Z,22.95
2017-11-01T19:32:58.137Z,20.88
2017-11-01T19:35:25.940Z,28.33
2017-11-01T19:37:53.556Z,28.00
2017-11-01T19:40:21.192Z,25.48
2017-11-01T19:42:48.826Z,25.67
2017-11-01T19:45:16.453Z,32.77
2017-11-01T19:47:44.078Z,31.35
2017-11-01T19:50:11.793Z,30.12
2017-11-01T19:52:39.472Z,33.47
2017-11-01T19:55:07.362Z,30.00
2017-11-01T19:57:35.046Z,32.80
2017-11-01T20:00:10.181Z,40.25
2017-11-01T20:02:37.819Z,42.80
2017-11-01T20:05:06.234Z,37.90
2017-11-01T20:07:34.014Z,53.95
2017-11-01T20:10:01.694Z,37.65
2017-11-01T20:12:30.822Z,52.78
2017-11-01T20:14:58.431Z,51.50
2017-11-01T20:17:27.194Z,72.40
2017-11-01T20:19:54.786Z,85.15
2017-11-01T20:22:22.657Z,89.28
2017-11-01T20:24:50.373Z,103.87
2017-11-01T20:27:18.156Z,97.07
2017-11-01T20:29:45.875Z,107.25
2017-11-01T20:32:13.536Z,105.97
2017-11-01T20:34:41.335Z,94.90
2017-11-01T20:37:09.406Z,83.12
2017-11-01T20:39:37.900Z,130.12
2017-11-01T20:42:05.628Z,139.15
2017-11-01T20:44:33.219Z,133.82
2017-11-01T20:47:00.975Z,123.20
2017-11-01T20:49:28.656Z,118.13
2017-11-01T20:51:57.527Z,108.20
2017-11-01T20:54:25.204Z,107.85
2017-11-01T20:56:53.948Z,106.12
2017-11-01T20:59:21.560Z,114.47
2017-11-01T21:01:49.232Z,103.68
2017-11-01T21:04:17.043Z,102.85
2017-11-01T21:06:44.738Z,101.75
2017-11-01T21:09:12.418Z,103.62
2017-11-01T21:11:40.081Z,118.50
2017-11-01T21:14:10.196Z,119.65
2017-11-01T21:16:37.854Z,135.02
2017-11-01T21:19:07.076Z,143.00
2017-11-01T21:21:34.747Z,135.93
2017-11-01T21:24:02.551Z,131.85
2017-11-01T21:26:30.380Z,158.68
2017-11-01T21:28:58.963Z,154.93
2017-11-01T21:31:26.765Z,172.40
2017-11-01T21:33:56.070Z,154.40
2017-11-01T21:36:23.789Z,153.18
2017-11-01T21:38:51.539Z,122.53
2017-11-01T21:41:19.141Z,138.52
2017-11-01T21:43:46.788Z,121.55
2017-11-01T21:46:15.116Z,122.03
2017-11-01T21:48:42.879Z,110.18
2017-11-01T21:51:10.717Z,115.62
2017-11-01T21:53:40.045Z,103.10
2017-11-01T21:56:08.612Z,107.30
2017-11-01T21:58:36.225Z,127.07
2017-11-01T22:01:03.876Z,127.82
2017-11-01T22:03:31.923Z,143.10
2017-11-01T22:05:59.583Z,117.70
2017-11-01T22:08:27.168Z,125.25
2017-11-01T22:10:54.823Z,104.57
2017-11-01T22:13:27.194Z,125.00
2017-11-01T22:15:55.014Z,103.25
2017-11-01T22:18:31.474Z,80.28
2017-11-01T22:20:59.713Z,123.13
2017-11-01T22:26:27.931Z,73.75
2017-11-01T22:28:55.573Z,87.32
2017-11-01T22:31:23.196Z,79.72
2017-11-01T22:33:51.271Z,90.00
2017-11-01T22:36:18.951Z,97.68
2017-11-01T22:38:46.581Z,73.10
2017-11-01T22:41:14.203Z,105.97
2017-11-01T22:43:41.898Z,69.87
2017-11-01T22:46:10.187Z,88.57
2017-11-01T22:48:37.848Z,56.28
2017-11-01T22:51:05.694Z,33.15
2017-11-01T22:53:33.346Z,30.33
2017-11-01T22:56:01.020Z,67.30
2017-11-01T22:58:29.258Z,98.25
2017-11-01T23:00:56.982Z,93.35
2017-11-01T23:03:26.372Z,101.50
2017-11-01T23:05:54.384Z,107.25
2017-11-01T23:08:22.112Z,119.65
2017-11-01T23:10:49.981Z,128.57
2017-11-01T23:13:17.591Z,130.00
2017-11-01T23:15:46.228Z,129.73
2017-11-01T23:18:14.761Z,122.45
2017-11-01T23:20:42.385Z,129.40
2017-11-01T23:23:10.595Z,131.82
2017-11-01T23:25:38.227Z,141.75
2017-11-01T23:28:05.845Z,122.93
2017-11-01T23:30:33.483Z,123.85
2017-11-01T23:33:02.070Z,152.70
2017-11-01T23:35:29.726Z,133.50
2017-11-01T23:37:57.332Z,116.75
2017-11-01T23:40:25.267Z,107.28
2017-11-01T23:42:52.955Z,139.77
2017-11-01T23:45:33.006Z,131.20
2017-11-01T23:48:07.082Z,109.82
2017-11-01T23:50:43.968Z,119.93
2017-11-01T23:53:21.011Z,143.90
2017-11-01T23:56:08.314Z,129.55
2017-11-01T23:58:48.061Z,117.40
